KSMO/SMO METAR and TAF weather

Enter ICAO airport designator
Station Type Date Time Source
KSMO METAR 2019/11/15 04:51 UTC NOAA

KSMO 150451Z AUTO 07004KT 10SM CLR 15/13 A3011 RMK AO2 SLP194 T01500128


Station Type Date Time Source
KSMO Decoded METAR 2019/11/15 04:51 UTC NOAA

SANTA MONICA MUNICIPAL AIRPORT , CA, United States (KSMO) 34-01N 118-27W 57M
Nov 14, 2019 - 11:51 PM EST / 2019.11.15 0451 UTC
Wind: from the ENE (070 degrees) at 5 MPH (4 KT):0
Visibility: 10 mile(s):0
Sky conditions: clear
Temperature: 59.0 F (15.0 C)
Dew Point: 55.0 F (12.8 C)
Relative Humidity: 86%
Pressure (altimeter): 30.11 in. Hg (1019 hPa)
ob: KSMO 150451Z AUTO 07004KT 10SM CLR 15/13 A3011 RMK AO2 SLP194 T01500128
cycle: 5

Station Type Date Time Source
KSMO TAF 2019/11/14 19:10 UTC NOAA

TAF
AMD KSMO 141910Z 1419/1518 23004KT 5SM HZ BKN150
FM142100 23008KT P6SM BKN150
FM150200 VRB03KT P6SM BKN200
FM150700 VRB03KT P6SM BKN020 OVC035
FM151200 VRB03KT P6SM BKN015 OVC035

Example: see airport list